Terminal Aerodrome Forecast
Issued by NWS Austin/San Antonio, TX

Home | Current Version | Previous Version | Text Only | Print | Product List | Glossary On
Versions: 1 2 3 4 5 6 7 8 9 10 11 12 13 14 15 16 17 18
000
FTUS44 KEWX 301736
TAFAUS
TAF
KAUS 301736Z 3018/3124 VRB03KT P6SM FEW250
     FM302000 12007KT P6SM FEW070 SCT250
     FM310500 VRB03KT P6SM SCT070 SCT250
     FM311500 07007KT P6SM SCT070 SCT250 PROB30 3118/3124 TSRA
      BKN050CB=

USA.gov is the U.S. government's official web portal to all federal, state and local government web resources and services.